sensor_id;sensor_type;location;lat;lon;timestamp;P1;durP1;ratioP1;P2;durP2;ratioP2
72728;SDS011;60843;52.062;4.508;2023-12-04T00:02:09;11.45;;;4.88;;
72728;SDS011;60843;52.062;4.508;2023-12-04T00:04:34;11.07;;;4.53;;
72728;SDS011;60843;52.062;4.508;2023-12-04T00:07:01;11.07;;;4.43;;
72728;SDS011;60843;52.062;4.508;2023-12-04T00:09:26;9.77;;;3.70;;
72728;SDS011;60843;52.062;4.508;2023-12-04T00:11:52;10.32;;;3.88;;
72728;SDS011;60843;52.062;4.508;2023-12-04T00:14:18;10.80;;;4.28;;
72728;SDS011;60843;52.062;4.508;2023-12-04T00:16:44;8.90;;;3.97;;
72728;SDS011;60843;52.062;4.508;2023-12-04T00:19:09;14.32;;;5.30;;
72728;SDS011;60843;52.062;4.508;2023-12-04T00:21:35;10.70;;;3.50;;
72728;SDS011;60843;52.062;4.508;2023-12-04T00:24:01;15.93;;;5.20;;
72728;SDS011;60843;52.062;4.508;2023-12-04T00:26:27;12.35;;;5.45;;
72728;SDS011;60843;52.062;4.508;2023-12-04T00:28:52;12.68;;;4.90;;
72728;SDS011;60843;52.062;4.508;2023-12-04T00:31:18;14.40;;;5.00;;
72728;SDS011;60843;52.062;4.508;2023-12-04T00:33:44;13.52;;;5.13;;
72728;SDS011;60843;52.062;4.508;2023-12-04T00:36:10;6.00;;;3.30;;
72728;SDS011;60843;52.062;4.508;2023-12-04T00:38:37;10.35;;;5.10;;
72728;SDS011;60843;52.062;4.508;2023-12-04T00:41:02;12.30;;;4.50;;
72728;SDS011;60843;52.062;4.508;2023-12-04T00:43:28;9.00;;;3.88;;
72728;SDS011;60843;52.062;4.508;2023-12-04T00:45:53;14.93;;;5.22;;
72728;SDS011;60843;52.062;4.508;2023-12-04T00:48:19;10.60;;;5.07;;
72728;SDS011;60843;52.062;4.508;2023-12-04T00:50:45;10.25;;;3.70;;
72728;SDS011;60843;52.062;4.508;2023-12-04T00:53:13;5.82;;;2.92;;
72728;SDS011;60843;52.062;4.508;2023-12-04T00:55:38;13.88;;;5.05;;
72728;SDS011;60843;52.062;4.508;2023-12-04T00:58:04;9.30;;;4.07;;
72728;SDS011;60843;52.062;4.508;2023-12-04T01:00:29;9.65;;;4.35;;
72728;SDS011;60843;52.062;4.508;2023-12-04T01:02:55;5.15;;;2.63;;
72728;SDS011;60843;52.062;4.508;2023-12-04T01:05:21;8.48;;;4.53;;
72728;SDS011;60843;52.062;4.508;2023-12-04T01:07:46;11.32;;;4.47;;
72728;SDS011;60843;52.062;4.508;2023-12-04T01:10:12;8.52;;;4.15;;
72728;SDS011;60843;52.062;4.508;2023-12-04T01:12:38;11.95;;;4.18;;
72728;SDS011;60843;52.062;4.508;2023-12-04T01:15:04;8.02;;;3.95;;
72728;SDS011;60843;52.062;4.508;2023-12-04T01:17:30;10.55;;;3.80;;
72728;SDS011;60843;52.062;4.508;2023-12-04T01:19:58;10.93;;;3.85;;
72728;SDS011;60843;52.062;4.508;2023-12-04T01:22:24;9.63;;;3.80;;
72728;SDS011;60843;52.062;4.508;2023-12-04T01:24:49;5.88;;;3.22;;
72728;SDS011;60843;52.062;4.508;2023-12-04T01:27:15;11.00;;;3.80;;
72728;SDS011;60843;52.062;4.508;2023-12-04T01:29:40;12.60;;;4.35;;
72728;SDS011;60843;52.062;4.508;2023-12-04T01:32:06;11.48;;;4.45;;
72728;SDS011;60843;52.062;4.508;2023-12-04T01:34:32;11.90;;;4.07;;
72728;SDS011;60843;52.062;4.508;2023-12-04T01:36:57;9.80;;;4.57;;
72728;SDS011;60843;52.062;4.508;2023-12-04T01:39:23;11.13;;;3.97;;
72728;SDS011;60843;52.062;4.508;2023-12-04T01:41:49;9.18;;;4.50;;
72728;SDS011;60843;52.062;4.508;2023-12-04T01:44:15;9.95;;;4.25;;
72728;SDS011;60843;52.062;4.508;2023-12-04T01:46:43;8.55;;;3.30;;
72728;SDS011;60843;52.062;4.508;2023-12-04T01:49:09;11.00;;;4.03;;
72728;SDS011;60843;52.062;4.508;2023-12-04T01:51:35;9.23;;;4.07;;
72728;SDS011;60843;52.062;4.508;2023-12-04T01:54:03;10.63;;;4.22;;
72728;SDS011;60843;52.062;4.508;2023-12-04T01:56:30;10.77;;;4.95;;
72728;SDS011;60843;52.062;4.508;2023-12-04T01:58:58;12.05;;;4.53;;
72728;SDS011;60843;52.062;4.508;2023-12-04T02:01:24;11.50;;;4.35;;
72728;SDS011;60843;52.062;4.508;2023-12-04T02:03:50;12.27;;;3.92;;
72728;SDS011;60843;52.062;4.508;2023-12-04T02:06:16;10.20;;;4.00;;
72728;SDS011;60843;52.062;4.508;2023-12-04T02:08:45;9.45;;;3.92;;
72728;SDS011;60843;52.062;4.508;2023-12-04T02:11:12;7.97;;;3.90;;
72728;SDS011;60843;52.062;4.508;2023-12-04T02:13:37;9.70;;;4.00;;
72728;SDS011;60843;52.062;4.508;2023-12-04T02:16:03;10.73;;;3.58;;
72728;SDS011;60843;52.062;4.508;2023-12-04T02:18:34;10.15;;;4.18;;
72728;SDS011;60843;52.062;4.508;2023-12-04T02:21:00;9.60;;;3.58;;
72728;SDS011;60843;52.062;4.508;2023-12-04T02:23:29;11.57;;;4.20;;
72728;SDS011;60843;52.062;4.508;2023-12-04T02:25:57;9.50;;;3.97;;
72728;SDS011;60843;52.062;4.508;2023-12-04T02:28:25;8.63;;;3.97;;
72728;SDS011;60843;52.062;4.508;2023-12-04T02:30:54;9.20;;;3.95;;
72728;SDS011;60843;52.062;4.508;2023-12-04T02:33:20;6.97;;;3.35;;
72728;SDS011;60843;52.062;4.508;2023-12-04T02:35:48;8.27;;;2.38;;
72728;SDS011;60843;52.062;4.508;2023-12-04T02:38:15;8.48;;;3.05;;
72728;SDS011;60843;52.062;4.508;2023-12-04T02:40:41;8.40;;;3.90;;
72728;SDS011;60843;52.062;4.508;2023-12-04T02:43:07;9.65;;;3.97;;
72728;SDS011;60843;52.062;4.508;2023-12-04T02:45:33;8.90;;;3.70;;
72728;SDS011;60843;52.062;4.508;2023-12-04T02:47:58;4.00;;;2.17;;
72728;SDS011;60843;52.062;4.508;2023-12-04T02:50:24;10.40;;;3.65;;
72728;SDS011;60843;52.062;4.508;2023-12-04T02:52:49;5.53;;;2.40;;
72728;SDS011;60843;52.062;4.508;2023-12-04T02:55:15;10.82;;;3.80;;
72728;SDS011;60843;52.062;4.508;2023-12-04T02:57:41;6.90;;;2.63;;
72728;SDS011;60843;52.062;4.508;2023-12-04T03:00:07;7.10;;;3.40;;
72728;SDS011;60843;52.062;4.508;2023-12-04T03:02:34;5.72;;;2.10;;
72728;SDS011;60843;52.062;4.508;2023-12-04T03:05:00;8.45;;;3.20;;
72728;SDS011;60843;52.062;4.508;2023-12-04T03:07:26;9.18;;;3.22;;
72728;SDS011;60843;52.062;4.508;2023-12-04T03:09:52;8.38;;;3.97;;
72728;SDS011;60843;52.062;4.508;2023-12-04T03:12:18;9.30;;;3.90;;
72728;SDS011;60843;52.062;4.508;2023-12-04T03:14:44;7.75;;;3.13;;
72728;SDS011;60843;52.062;4.508;2023-12-04T03:17:10;7.95;;;3.25;;
72728;SDS011;60843;52.062;4.508;2023-12-04T03:19:36;6.45;;;2.70;;
72728;SDS011;60843;52.062;4.508;2023-12-04T03:22:01;9.60;;;3.67;;
72728;SDS011;60843;52.062;4.508;2023-12-04T03:24:30;9.80;;;4.15;;
72728;SDS011;60843;52.062;4.508;2023-12-04T03:26:56;8.32;;;3.42;;
72728;SDS011;60843;52.062;4.508;2023-12-04T03:29:22;8.02;;;3.92;;
72728;SDS011;60843;52.062;4.508;2023-12-04T03:31:48;7.10;;;3.13;;
72728;SDS011;60843;52.062;4.508;2023-12-04T03:34:13;7.85;;;3.60;;
72728;SDS011;60843;52.062;4.508;2023-12-04T03:36:39;7.32;;;3.38;;
72728;SDS011;60843;52.062;4.508;2023-12-04T03:39:05;7.05;;;3.22;;
72728;SDS011;60843;52.062;4.508;2023-12-04T03:41:32;7.50;;;3.10;;
72728;SDS011;60843;52.062;4.508;2023-12-04T03:43:57;10.18;;;3.70;;
72728;SDS011;60843;52.062;4.508;2023-12-04T03:46:23;7.03;;;3.50;;
72728;SDS011;60843;52.062;4.508;2023-12-04T03:48:48;9.65;;;3.55;;
72728;SDS011;60843;52.062;4.508;2023-12-04T03:51:14;9.75;;;3.35;;
72728;SDS011;60843;52.062;4.508;2023-12-04T03:53:40;9.25;;;3.92;;
72728;SDS011;60843;52.062;4.508;2023-12-04T03:56:06;5.32;;;2.30;;
72728;SDS011;60843;52.062;4.508;2023-12-04T03:58:32;8.38;;;3.63;;
72728;SDS011;60843;52.062;4.508;2023-12-04T04:00:57;11.25;;;3.60;;
72728;SDS011;60843;52.062;4.508;2023-12-04T04:03:23;9.52;;;3.85;;
72728;SDS011;60843;52.062;4.508;2023-12-04T04:05:50;10.88;;;3.88;;
72728;SDS011;60843;52.062;4.508;2023-12-04T04:08:16;9.07;;;3.55;;
72728;SDS011;60843;52.062;4.508;2023-12-04T04:10:42;9.50;;;3.50;;
72728;SDS011;60843;52.062;4.508;2023-12-04T04:13:08;8.60;;;3.33;;
72728;SDS011;60843;52.062;4.508;2023-12-04T04:15:34;6.18;;;3.17;;
72728;SDS011;60843;52.062;4.508;2023-12-04T04:18:00;9.18;;;3.35;;
72728;SDS011;60843;52.062;4.508;2023-12-04T04:20:25;7.13;;;3.45;;
72728;SDS011;60843;52.062;4.508;2023-12-04T04:22:51;10.13;;;3.53;;
72728;SDS011;60843;52.062;4.508;2023-12-04T04:25:18;6.25;;;2.38;;
72728;SDS011;60843;52.062;4.508;2023-12-04T04:27:46;9.25;;;3.10;;
72728;SDS011;60843;52.062;4.508;2023-12-04T04:30:12;6.18;;;3.00;;
72728;SDS011;60843;52.062;4.508;2023-12-04T04:32:39;4.85;;;2.67;;
72728;SDS011;60843;52.062;4.508;2023-12-04T04:35:04;9.73;;;3.92;;
72728;SDS011;60843;52.062;4.508;2023-12-04T04:37:30;5.13;;;2.15;;
72728;SDS011;60843;52.062;4.508;2023-12-04T04:39:56;7.95;;;3.13;;
72728;SDS011;60843;52.062;4.508;2023-12-04T04:42:22;5.10;;;2.47;;
72728;SDS011;60843;52.062;4.508;2023-12-04T04:44:47;8.27;;;3.28;;
72728;SDS011;60843;52.062;4.508;2023-12-04T04:47:13;7.05;;;2.42;;
72728;SDS011;60843;52.062;4.508;2023-12-04T04:49:39;7.35;;;3.03;;
72728;SDS011;60843;52.062;4.508;2023-12-04T04:52:06;9.77;;;2.97;;
72728;SDS011;60843;52.062;4.508;2023-12-04T04:54:35;8.05;;;2.97;;
72728;SDS011;60843;52.062;4.508;2023-12-04T04:57:01;13.95;;;4.07;;
72728;SDS011;60843;52.062;4.508;2023-12-04T04:59:26;10.55;;;3.00;;
72728;SDS011;60843;52.062;4.508;2023-12-04T05:01:55;7.10;;;3.38;;
72728;SDS011;60843;52.062;4.508;2023-12-04T05:04:21;8.07;;;3.35;;
72728;SDS011;60843;52.062;4.508;2023-12-04T05:06:47;8.90;;;3.38;;
72728;SDS011;60843;52.062;4.508;2023-12-04T05:09:13;7.20;;;2.67;;
72728;SDS011;60843;52.062;4.508;2023-12-04T05:11:44;7.43;;;3.03;;
72728;SDS011;60843;52.062;4.508;2023-12-04T05:14:13;5.32;;;2.47;;
72728;SDS011;60843;52.062;4.508;2023-12-04T05:16:39;6.22;;;2.50;;
72728;SDS011;60843;52.062;4.508;2023-12-04T05:19:08;7.82;;;3.33;;
72728;SDS011;60843;52.062;4.508;2023-12-04T05:21:33;7.22;;;3.35;;
72728;SDS011;60843;52.062;4.508;2023-12-04T05:23:59;7.05;;;3.17;;
72728;SDS011;60843;52.062;4.508;2023-12-04T05:26:25;7.43;;;3.45;;
72728;SDS011;60843;52.062;4.508;2023-12-04T05:28:50;9.38;;;3.38;;
72728;SDS011;60843;52.062;4.508;2023-12-04T05:31:16;6.40;;;2.67;;
72728;SDS011;60843;52.062;4.508;2023-12-04T05:33:41;8.68;;;2.72;;
72728;SDS011;60843;52.062;4.508;2023-12-04T05:36:11;8.23;;;2.75;;
72728;SDS011;60843;52.062;4.508;2023-12-04T05:38:37;7.15;;;2.63;;
72728;SDS011;60843;52.062;4.508;2023-12-04T05:41:03;8.38;;;3.05;;
72728;SDS011;60843;52.062;4.508;2023-12-04T05:43:28;8.93;;;2.15;;
72728;SDS011;60843;52.062;4.508;2023-12-04T05:45:57;7.57;;;2.40;;
72728;SDS011;60843;52.062;4.508;2023-12-04T05:48:23;5.00;;;1.70;;
72728;SDS011;60843;52.062;4.508;2023-12-04T05:50:49;3.88;;;2.17;;
72728;SDS011;60843;52.062;4.508;2023-12-04T05:53:16;5.20;;;2.42;;
72728;SDS011;60843;52.062;4.508;2023-12-04T05:55:41;9.38;;;3.45;;
72728;SDS011;60843;52.062;4.508;2023-12-04T05:58:07;3.22;;;1.60;;
72728;SDS011;60843;52.062;4.508;2023-12-04T06:00:33;4.38;;;2.53;;
72728;SDS011;60843;52.062;4.508;2023-12-04T06:02:58;6.32;;;3.05;;
72728;SDS011;60843;52.062;4.508;2023-12-04T06:05:24;4.90;;;2.55;;
72728;SDS011;60843;52.062;4.508;2023-12-04T06:07:53;3.97;;;2.30;;
72728;SDS011;60843;52.062;4.508;2023-12-04T06:10:18;7.80;;;3.20;;
72728;SDS011;60843;52.062;4.508;2023-12-04T06:12:46;7.40;;;3.50;;
72728;SDS011;60843;52.062;4.508;2023-12-04T06:15:12;8.50;;;2.72;;
72728;SDS011;60843;52.062;4.508;2023-12-04T06:17:38;7.80;;;3.47;;
72728;SDS011;60843;52.062;4.508;2023-12-04T06:20:04;6.60;;;3.17;;
72728;SDS011;60843;52.062;4.508;2023-12-04T06:22:31;8.85;;;2.90;;
72728;SDS011;60843;52.062;4.508;2023-12-04T06:24:57;10.13;;;3.58;;
72728;SDS011;60843;52.062;4.508;2023-12-04T06:27:23;7.70;;;3.20;;
72728;SDS011;60843;52.062;4.508;2023-12-04T06:29:48;5.15;;;2.20;;
72728;SDS011;60843;52.062;4.508;2023-12-04T06:32:15;9.00;;;3.47;;
72728;SDS011;60843;52.062;4.508;2023-12-04T06:34:42;8.80;;;3.33;;
72728;SDS011;60843;52.062;4.508;2023-12-04T06:37:10;8.63;;;3.55;;
72728;SDS011;60843;52.062;4.508;2023-12-04T06:39:42;6.65;;;3.00;;
72728;SDS011;60843;52.062;4.508;2023-12-04T06:42:13;8.05;;;3.42;;
72728;SDS011;60843;52.062;4.508;2023-12-04T06:44:39;9.23;;;3.10;;
72728;SDS011;60843;52.062;4.508;2023-12-04T06:47:05;9.68;;;3.80;;
72728;SDS011;60843;52.062;4.508;2023-12-04T06:49:33;4.72;;;2.30;;
72728;SDS011;60843;52.062;4.508;2023-12-04T06:51:59;6.63;;;3.25;;
72728;SDS011;60843;52.062;4.508;2023-12-04T06:54:29;5.25;;;2.47;;
72728;SDS011;60843;52.062;4.508;2023-12-04T06:56:56;6.93;;;3.13;;
72728;SDS011;60843;52.062;4.508;2023-12-04T06:59:22;6.18;;;2.80;;
72728;SDS011;60843;52.062;4.508;2023-12-04T07:01:50;5.25;;;3.03;;
72728;SDS011;60843;52.062;4.508;2023-12-04T07:04:16;4.97;;;2.20;;
72728;SDS011;60843;52.062;4.508;2023-12-04T07:06:46;7.13;;;2.90;;
72728;SDS011;60843;52.062;4.508;2023-12-04T07:09:11;6.07;;;2.40;;
72728;SDS011;60843;52.062;4.508;2023-12-04T07:11:37;6.25;;;2.70;;
72728;SDS011;60843;52.062;4.508;2023-12-04T07:14:03;6.20;;;3.03;;
72728;SDS011;60843;52.062;4.508;2023-12-04T07:16:28;6.90;;;3.03;;
72728;SDS011;60843;52.062;4.508;2023-12-04T07:18:54;4.88;;;2.25;;
72728;SDS011;60843;52.062;4.508;2023-12-04T07:21:20;7.57;;;3.13;;
72728;SDS011;60843;52.062;4.508;2023-12-04T07:23:48;7.43;;;3.17;;
72728;SDS011;60843;52.062;4.508;2023-12-04T07:26:14;6.88;;;2.85;;
72728;SDS011;60843;52.062;4.508;2023-12-04T07:28:39;5.78;;;2.97;;
72728;SDS011;60843;52.062;4.508;2023-12-04T07:31:05;6.43;;;2.95;;
72728;SDS011;60843;52.062;4.508;2023-12-04T07:33:33;6.72;;;3.33;;
72728;SDS011;60843;52.062;4.508;2023-12-04T07:36:00;6.47;;;2.75;;
72728;SDS011;60843;52.062;4.508;2023-12-04T07:38:26;6.25;;;2.55;;
72728;SDS011;60843;52.062;4.508;2023-12-04T07:40:52;6.22;;;2.78;;
72728;SDS011;60843;52.062;4.508;2023-12-04T07:43:19;8.07;;;3.25;;
72728;SDS011;60843;52.062;4.508;2023-12-04T07:45:44;2.70;;;1.73;;
72728;SDS011;60843;52.062;4.508;2023-12-04T07:48:10;6.38;;;2.80;;
72728;SDS011;60843;52.062;4.508;2023-12-04T07:50:44;7.45;;;3.08;;
72728;SDS011;60843;52.062;4.508;2023-12-04T07:53:10;3.88;;;1.63;;
72728;SDS011;60843;52.062;4.508;2023-12-04T07:55:39;8.18;;;3.40;;
72728;SDS011;60843;52.062;4.508;2023-12-04T07:58:04;5.65;;;2.38;;
72728;SDS011;60843;52.062;4.508;2023-12-04T08:00:30;7.15;;;2.65;;
72728;SDS011;60843;52.062;4.508;2023-12-04T08:02:56;21.98;;;3.22;;
72728;SDS011;60843;52.062;4.508;2023-12-04T08:05:22;5.10;;;2.15;;
72728;SDS011;60843;52.062;4.508;2023-12-04T08:07:47;3.50;;;2.17;;
72728;SDS011;60843;52.062;4.508;2023-12-04T08:10:13;5.13;;;2.78;;
72728;SDS011;60843;52.062;4.508;2023-12-04T08:12:39;3.42;;;2.03;;
72728;SDS011;60843;52.062;4.508;2023-12-04T08:15:07;7.00;;;2.78;;
72728;SDS011;60843;52.062;4.508;2023-12-04T08:17:33;5.25;;;2.55;;
72728;SDS011;60843;52.062;4.508;2023-12-04T08:20:00;6.57;;;2.97;;
72728;SDS011;60843;52.062;4.508;2023-12-04T08:22:25;4.82;;;2.17;;
72728;SDS011;60843;52.062;4.508;2023-12-04T08:24:51;7.18;;;2.63;;
72728;SDS011;60843;52.062;4.508;2023-12-04T08:27:17;11.02;;;2.78;;
72728;SDS011;60843;52.062;4.508;2023-12-04T08:29:42;4.45;;;1.92;;
72728;SDS011;60843;52.062;4.508;2023-12-04T08:32:09;3.97;;;2.15;;
72728;SDS011;60843;52.062;4.508;2023-12-04T08:34:37;4.50;;;1.80;;
72728;SDS011;60843;52.062;4.508;2023-12-04T08:37:03;7.68;;;3.35;;
72728;SDS011;60843;52.062;4.508;2023-12-04T08:39:29;7.25;;;2.67;;
72728;SDS011;60843;52.062;4.508;2023-12-04T08:41:55;4.57;;;2.00;;
72728;SDS011;60843;52.062;4.508;2023-12-04T08:44:21;5.07;;;2.45;;
72728;SDS011;60843;52.062;4.508;2023-12-04T08:46:47;2.97;;;2.05;;
72728;SDS011;60843;52.062;4.508;2023-12-04T08:49:12;6.93;;;3.08;;
72728;SDS011;60843;52.062;4.508;2023-12-04T08:51:38;7.75;;;3.20;;
72728;SDS011;60843;52.062;4.508;2023-12-04T08:54:03;5.55;;;2.28;;
72728;SDS011;60843;52.062;4.508;2023-12-04T08:56:29;1.60;;;1.30;;
72728;SDS011;60843;52.062;4.508;2023-12-04T08:58:55;7.53;;;3.10;;
72728;SDS011;60843;52.062;4.508;2023-12-04T09:01:22;2.30;;;1.50;;
72728;SDS011;60843;52.062;4.508;2023-12-04T09:03:48;6.32;;;2.90;;
72728;SDS011;60843;52.062;4.508;2023-12-04T09:06:13;5.65;;;2.40;;
72728;SDS011;60843;52.062;4.508;2023-12-04T09:08:40;6.60;;;2.83;;
72728;SDS011;60843;52.062;4.508;2023-12-04T09:11:09;4.32;;;2.35;;
72728;SDS011;60843;52.062;4.508;2023-12-04T09:16:01;5.28;;;2.78;;
72728;SDS011;60843;52.062;4.508;2023-12-04T09:18:30;5.70;;;2.75;;
72728;SDS011;60843;52.062;4.508;2023-12-04T09:20:57;4.85;;;2.58;;
72728;SDS011;60843;52.062;4.508;2023-12-04T09:23:31;5.25;;;2.25;;
72728;SDS011;60843;52.062;4.508;2023-12-04T09:26:00;9.68;;;3.00;;
72728;SDS011;60843;52.062;4.508;2023-12-04T09:28:26;2.28;;;1.70;;
72728;SDS011;60843;52.062;4.508;2023-12-04T09:30:59;2.83;;;1.60;;
72728;SDS011;60843;52.062;4.508;2023-12-04T09:33:26;5.93;;;2.47;;
72728;SDS011;60843;52.062;4.508;2023-12-04T09:35:52;11.90;;;3.40;;
72728;SDS011;60843;52.062;4.508;2023-12-04T09:38:18;4.43;;;2.15;;
72728;SDS011;60843;52.062;4.508;2023-12-04T09:40:43;6.30;;;2.65;;
72728;SDS011;60843;52.062;4.508;2023-12-04T09:43:12;5.57;;;2.53;;
72728;SDS011;60843;52.062;4.508;2023-12-04T09:45:38;6.28;;;2.55;;
72728;SDS011;60843;52.062;4.508;2023-12-04T09:48:09;6.82;;;2.85;;
72728;SDS011;60843;52.062;4.508;2023-12-04T09:50:35;2.33;;;1.58;;
72728;SDS011;60843;52.062;4.508;2023-12-04T09:53:10;7.18;;;2.53;;
72728;SDS011;60843;52.062;4.508;2023-12-04T09:55:43;6.03;;;2.65;;
72728;SDS011;60843;52.062;4.508;2023-12-04T09:58:10;5.53;;;2.92;;
72728;SDS011;60843;52.062;4.508;2023-12-04T10:00:37;5.47;;;2.17;;
72728;SDS011;60843;52.062;4.508;2023-12-04T10:03:08;5.75;;;2.65;;
72728;SDS011;60843;52.062;4.508;2023-12-04T10:05:43;5.38;;;2.45;;
72728;SDS011;60843;52.062;4.508;2023-12-04T10:10:36;6.93;;;2.85;;
72728;SDS011;60843;52.062;4.508;2023-12-04T10:13:05;3.90;;;2.20;;
72728;SDS011;60843;52.062;4.508;2023-12-04T10:15:31;6.25;;;2.15;;
72728;SDS011;60843;52.062;4.508;2023-12-04T10:17:58;4.93;;;2.42;;
72728;SDS011;60843;52.062;4.508;2023-12-04T10:20:27;4.43;;;1.98;;
72728;SDS011;60843;52.062;4.508;2023-12-04T10:23:01;4.43;;;2.40;;
72728;SDS011;60843;52.062;4.508;2023-12-04T10:25:28;3.22;;;1.80;;
72728;SDS011;60843;52.062;4.508;2023-12-04T10:28:11;2.05;;;1.45;;
72728;SDS011;60843;52.062;4.508;2023-12-04T10:30:40;4.18;;;2.03;;
72728;SDS011;60843;52.062;4.508;2023-12-04T10:33:07;7.28;;;2.45;;
72728;SDS011;60843;52.062;4.508;2023-12-04T10:35:33;4.30;;;2.03;;
72728;SDS011;60843;52.062;4.508;2023-12-04T10:38:03;4.03;;;2.42;;
72728;SDS011;60843;52.062;4.508;2023-12-04T10:40:35;5.32;;;2.63;;
72728;SDS011;60843;52.062;4.508;2023-12-04T10:43:17;6.13;;;2.80;;
72728;SDS011;60843;52.062;4.508;2023-12-04T10:45:46;5.95;;;2.38;;
72728;SDS011;60843;52.062;4.508;2023-12-04T10:48:13;4.72;;;2.75;;
72728;SDS011;60843;52.062;4.508;2023-12-04T10:50:43;3.80;;;2.00;;
72728;SDS011;60843;52.062;4.508;2023-12-04T10:53:13;2.75;;;2.00;;
72728;SDS011;60843;52.062;4.508;2023-12-04T10:56:00;5.53;;;2.78;;
72728;SDS011;60843;52.062;4.508;2023-12-04T10:58:28;6.57;;;2.75;;
72728;SDS011;60843;52.062;4.508;2023-12-04T11:00:54;3.67;;;2.05;;
72728;SDS011;60843;52.062;4.508;2023-12-04T11:03:37;6.32;;;2.70;;
72728;SDS011;60843;52.062;4.508;2023-12-04T11:06:10;5.00;;;2.38;;
72728;SDS011;60843;52.062;4.508;2023-12-04T11:08:37;5.60;;;2.95;;
72728;SDS011;60843;52.062;4.508;2023-12-04T11:11:08;4.38;;;2.13;;
72728;SDS011;60843;52.062;4.508;2023-12-04T11:13:37;4.68;;;2.22;;
72728;SDS011;60843;52.062;4.508;2023-12-04T11:16:12;2.80;;;1.80;;
72728;SDS011;60843;52.062;4.508;2023-12-04T11:18:43;4.40;;;2.03;;
72728;SDS011;60843;52.062;4.508;2023-12-04T11:21:09;3.30;;;2.25;;
72728;SDS011;60843;52.062;4.508;2023-12-04T11:23:36;5.07;;;2.35;;
72728;SDS011;60843;52.062;4.508;2023-12-04T11:26:05;3.55;;;2.17;;
72728;SDS011;60843;52.062;4.508;2023-12-04T11:28:33;3.42;;;1.23;;
72728;SDS011;60843;52.062;4.508;2023-12-04T11:31:00;6.30;;;2.42;;
72728;SDS011;60843;52.062;4.508;2023-12-04T11:33:26;6.78;;;2.45;;
72728;SDS011;60843;52.062;4.508;2023-12-04T11:36:05;5.35;;;2.35;;
72728;SDS011;60843;52.062;4.508;2023-12-04T11:38:37;5.50;;;2.17;;
72728;SDS011;60843;52.062;4.508;2023-12-04T11:41:15;4.38;;;2.40;;
72728;SDS011;60843;52.062;4.508;2023-12-04T11:43:42;3.33;;;1.85;;
72728;SDS011;60843;52.062;4.508;2023-12-04T11:46:10;4.50;;;1.45;;
72728;SDS011;60843;52.062;4.508;2023-12-04T11:48:39;4.90;;;2.28;;
72728;SDS011;60843;52.062;4.508;2023-12-04T11:51:09;5.88;;;2.55;;
72728;SDS011;60843;52.062;4.508;2023-12-04T11:53:42;5.60;;;2.78;;
72728;SDS011;60843;52.062;4.508;2023-12-04T11:56:25;3.85;;;2.13;;
72728;SDS011;60843;52.062;4.508;2023-12-04T11:59:05;2.80;;;1.10;;
72728;SDS011;60843;52.062;4.508;2023-12-04T12:01:38;11.65;;;2.78;;
72728;SDS011;60843;52.062;4.508;2023-12-04T12:04:05;3.47;;;2.08;;
72728;SDS011;60843;52.062;4.508;2023-12-04T12:06:31;5.97;;;2.55;;
72728;SDS011;60843;52.062;4.508;2023-12-04T12:08:57;5.63;;;2.45;;
72728;SDS011;60843;52.062;4.508;2023-12-04T12:11:23;5.22;;;2.42;;
72728;SDS011;60843;52.062;4.508;2023-12-04T12:13:49;4.32;;;2.20;;
72728;SDS011;60843;52.062;4.508;2023-12-04T12:16:21;3.42;;;1.23;;
72728;SDS011;60843;52.062;4.508;2023-12-04T12:18:54;3.35;;;1.98;;
72728;SDS011;60843;52.062;4.508;2023-12-04T12:21:20;4.32;;;1.85;;
72728;SDS011;60843;52.062;4.508;2023-12-04T12:23:48;4.28;;;2.17;;
72728;SDS011;60843;52.062;4.508;2023-12-04T12:26:21;4.43;;;2.20;;
72728;SDS011;60843;52.062;4.508;2023-12-04T12:28:47;5.63;;;2.22;;
72728;SDS011;60843;52.062;4.508;2023-12-04T12:31:29;7.63;;;2.55;;
72728;SDS011;60843;52.062;4.508;2023-12-04T12:33:57;6.50;;;2.80;;
72728;SDS011;60843;52.062;4.508;2023-12-04T12:36:24;5.53;;;2.45;;
72728;SDS011;60843;52.062;4.508;2023-12-04T12:38:52;4.95;;;2.55;;
72728;SDS011;60843;52.062;4.508;2023-12-04T12:41:19;3.25;;;1.73;;
72728;SDS011;60843;52.062;4.508;2023-12-04T12:43:45;4.47;;;2.67;;
72728;SDS011;60843;52.062;4.508;2023-12-04T12:46:18;4.32;;;2.38;;
72728;SDS011;60843;52.062;4.508;2023-12-04T12:48:46;3.13;;;1.58;;
72728;SDS011;60843;52.062;4.508;2023-12-04T12:51:12;3.85;;;1.98;;
72728;SDS011;60843;52.062;4.508;2023-12-04T12:53:39;4.35;;;2.63;;
72728;SDS011;60843;52.062;4.508;2023-12-04T12:56:05;5.60;;;2.58;;
72728;SDS011;60843;52.062;4.508;2023-12-04T12:58:32;3.45;;;1.55;;
72728;SDS011;60843;52.062;4.508;2023-12-04T13:01:01;5.18;;;2.35;;
72728;SDS011;60843;52.062;4.508;2023-12-04T13:03:30;3.35;;;1.52;;
72728;SDS011;60843;52.062;4.508;2023-12-04T13:06:00;6.18;;;2.85;;
72728;SDS011;60843;52.062;4.508;2023-12-04T13:08:26;4.75;;;2.53;;
72728;SDS011;60843;52.062;4.508;2023-12-04T13:10:54;8.27;;;2.97;;
72728;SDS011;60843;52.062;4.508;2023-12-04T13:13:23;6.30;;;2.80;;
72728;SDS011;60843;52.062;4.508;2023-12-04T13:15:49;4.93;;;2.75;;
72728;SDS011;60843;52.062;4.508;2023-12-04T13:18:15;6.70;;;2.92;;
72728;SDS011;60843;52.062;4.508;2023-12-04T13:20:43;8.60;;;3.15;;
72728;SDS011;60843;52.062;4.508;2023-12-04T13:23:09;7.38;;;3.55;;
72728;SDS011;60843;52.062;4.508;2023-12-04T13:25:34;6.13;;;2.90;;
72728;SDS011;60843;52.062;4.508;2023-12-04T13:28:00;3.80;;;1.90;;
72728;SDS011;60843;52.062;4.508;2023-12-04T13:30:29;6.47;;;3.10;;
72728;SDS011;60843;52.062;4.508;2023-12-04T13:32:58;5.40;;;2.42;;
72728;SDS011;60843;52.062;4.508;2023-12-04T13:37:49;6.07;;;2.90;;
72728;SDS011;60843;52.062;4.508;2023-12-04T13:40:20;7.88;;;3.30;;
72728;SDS011;60843;52.062;4.508;2023-12-04T13:42:53;6.22;;;2.95;;
72728;SDS011;60843;52.062;4.508;2023-12-04T13:45:38;7.47;;;2.75;;
72728;SDS011;60843;52.062;4.508;2023-12-04T13:48:04;3.20;;;1.83;;
72728;SDS011;60843;52.062;4.508;2023-12-04T13:50:29;6.90;;;3.35;;
72728;SDS011;60843;52.062;4.508;2023-12-04T13:52:55;8.57;;;3.03;;
72728;SDS011;60843;52.062;4.508;2023-12-04T13:55:25;3.50;;;1.83;;
72728;SDS011;60843;52.062;4.508;2023-12-04T13:58:19;7.13;;;3.28;;
72728;SDS011;60843;52.062;4.508;2023-12-04T14:01:07;5.28;;;3.15;;
72728;SDS011;60843;52.062;4.508;2023-12-04T14:03:42;6.45;;;3.33;;
72728;SDS011;60843;52.062;4.508;2023-12-04T14:06:08;4.80;;;2.67;;
72728;SDS011;60843;52.062;4.508;2023-12-04T14:08:34;4.60;;;2.03;;
72728;SDS011;60843;52.062;4.508;2023-12-04T14:11:01;7.97;;;3.00;;
72728;SDS011;60843;52.062;4.508;2023-12-04T14:13:27;5.60;;;3.08;;
72728;SDS011;60843;52.062;4.508;2023-12-04T14:15:53;8.18;;;3.78;;
72728;SDS011;60843;52.062;4.508;2023-12-04T14:18:19;11.65;;;2.78;;
72728;SDS011;60843;52.062;4.508;2023-12-04T14:20:46;10.52;;;2.92;;
72728;SDS011;60843;52.062;4.508;2023-12-04T14:23:13;6.03;;;2.97;;
72728;SDS011;60843;52.062;4.508;2023-12-04T14:25:44;11.63;;;3.78;;
72728;SDS011;60843;52.062;4.508;2023-12-04T14:30:38;7.13;;;3.33;;
72728;SDS011;60843;52.062;4.508;2023-12-04T14:33:06;7.32;;;2.78;;
72728;SDS011;60843;52.062;4.508;2023-12-04T14:35:37;5.13;;;2.65;;
72728;SDS011;60843;52.062;4.508;2023-12-04T14:38:03;2.97;;;1.83;;
72728;SDS011;60843;52.062;4.508;2023-12-04T14:40:32;3.00;;;1.95;;
72728;SDS011;60843;52.062;4.508;2023-12-04T14:43:00;5.70;;;2.03;;
72728;SDS011;60843;52.062;4.508;2023-12-04T14:45:26;6.82;;;2.60;;
72728;SDS011;60843;52.062;4.508;2023-12-04T14:47:54;6.10;;;2.95;;
72728;SDS011;60843;52.062;4.508;2023-12-04T14:50:22;4.75;;;2.67;;
72728;SDS011;60843;52.062;4.508;2023-12-04T14:52:49;7.43;;;3.20;;
72728;SDS011;60843;52.062;4.508;2023-12-04T14:55:16;4.13;;;2.30;;
72728;SDS011;60843;52.062;4.508;2023-12-04T14:57:49;9.93;;;3.28;;